Time;durP1;ratioP1;P1;durP2;ratioP2;P2;SDS_P1;SDS_P2;PMS_P1;PMS_P2;Temp;Humidity;BMP_temperature;BMP_pressure;BME280_temperature;BME280_humidity;BME280_pressure;Samples;Min_cycle;Max_cycle;Signal;HPM_P1;HPM_P2
2022/04/21 00:01:01;;;;;;;;;;;;;;;;;;2218828;58;2129;-67
2022/04/21 00:03:34;;;;;;;;;;;;;;;;;;2214623;59;1965;-68
2022/04/21 00:06:07;;;;;;;;;;;;;;;;;;2218554;66;1330;-68
2022/04/21 00:08:41;;;;;;;;;;;;;;;;;;2215997;66;1313;-68
2022/04/21 00:11:14;;;;;;;;;;;;;;;;;;2218044;58;1172;-68
2022/04/21 00:13:50;;;;;;;;;;;;;;;;;;2219308;58;1286;-69
2022/04/21 00:16:23;;;;;;;;;;;;;;;;;;2219107;58;2263;-68
2022/04/21 00:18:56;;;;;;;;;;;;;;;;;;2218900;58;1992;-68
2022/04/21 00:23:26;;;;;;;;;;;;;;;;;;2219674;58;1185;-68
2022/04/21 00:24:20;;;;;;;;;;;;;;;;;;2215713;66;1148;-68
2022/04/21 00:26:53;;;;;;;;;;;;;;;;;;2219296;59;1443;-68
2022/04/21 00:29:29;;;;;;;;;;;;;;;;;;2218502;58;2398;-68
2022/04/21 00:32:02;;;;;;;;;;;;;;;;;;2219040;59;1089;-68
2022/04/21 00:34:35;;;;;;;;;;;;;;;;;;2219435;66;1263;-68
2022/04/21 00:37:08;;;;;;;;;;;;;;;;;;2218926;58;1968;-67
2022/04/21 00:39:41;;;;;;;;;;;;;;;;;;2219299;66;1208;-68
2022/04/21 00:42:15;;;;;;;;;;;;;;;;;;2208722;66;1391;-68
2022/04/21 00:44:51;;;;;;;;;;;;;;;;;;2219743;58;1175;-68
2022/04/21 00:47:24;;;;;;;;;;;;;;;;;;2217403;58;1349;-68
2022/04/21 00:49:58;;;;;;;;;;;;;;;;;;2219802;66;1108;-68
2022/04/21 00:52:31;;;;;;;;;;;;;;;;;;2219716;66;1251;-68
2022/04/21 00:55:04;;;;;;;;;;;;;;;;;;2219501;66;1191;-68
2022/04/21 00:57:38;;;;;;;;;;;;;;;;;;2219079;53;3459;-70
2022/04/21 01:00:14;;;;;;;;;;;;;;;;;;2206283;58;2121;-71
2022/04/21 01:02:49;;;;;;;;;;;;;;;;;;2205014;58;1237;-70
2022/04/21 01:05:26;;;;;;;;;;;;;;;;;;2205182;59;1284;-71
2022/04/21 01:08:00;;;;;;;;;;;;;;;;;;2212552;59;1373;-70
2022/04/21 01:10:34;;;;;;;;;;;;;;;;;;2206095;59;1829;-70
2022/04/21 01:13:08;;;;;;;;;;;;;;;;;;2206570;59;1250;-71
2022/04/21 01:15:44;;;;;;;;;;;;;;;;;;2205086;66;1183;-71
2022/04/21 01:18:28;;;;;;;;;;;;;;;;;;2205395;58;2004;-70
2022/04/21 01:21:03;;;;;;;;;;;;;;;;;;2206247;67;1112;-70
2022/04/21 01:23:36;;;;;;;;;;;;;;;;;;2207009;58;1121;-70
2022/04/21 01:26:10;;;;;;;;;;;;;;;;;;2206102;58;1285;-70
2022/04/21 01:28:44;;;;;;;;;;;;;;;;;;2205854;67;1195;-70
2022/04/21 01:31:22;;;;;;;;;;;;;;;;;;2206785;59;1212;-70
2022/04/21 01:33:55;;;;;;;;;;;;;;;;;;2206466;59;1226;-70
2022/04/21 01:36:31;;;;;;;;;;;;;;;;;;2206250;59;1192;-70
2022/04/21 01:41:53;;;;;;;;;;;;;;;;;;2206879;67;1290;-71
2022/04/21 01:44:26;;;;;;;;;;;;;;;;;;2206418;58;1270;-71
2022/04/21 01:47:00;;;;;;;;;;;;;;;;;;2205941;59;1187;-70
2022/04/21 01:49:33;;;;;;;;;;;;;;;;;;2206605;66;1374;-70
2022/04/21 01:52:09;;;;;;;;;;;;;;;;;;2206277;59;1198;-70
2022/04/21 01:54:43;;;;;;;;;;;;;;;;;;2204782;58;1167;-70
2022/04/21 01:57:16;;;;;;;;;;;;;;;;;;2205126;66;1183;-70
2022/04/21 01:59:49;;;;;;;;;;;;;;;;;;2207214;58;2346;-70
2022/04/21 02:02:22;;;;;;;;;;;;;;;;;;2209745;58;2056;-70
2022/04/21 02:04:56;;;;;;;;;;;;;;;;;;2207468;59;1385;-70
2022/04/21 02:07:32;;;;;;;;;;;;;;;;;;2205421;67;1224;-70
2022/04/21 02:10:06;;;;;;;;;;;;;;;;;;2210295;59;1617;-70
2022/04/21 02:12:39;;;;;;;;;;;;;;;;;;2210989;59;1255;-71
2022/04/21 02:15:12;;;;;;;;;;;;;;;;;;2209472;66;1125;-70
2022/04/21 02:17:46;;;;;;;;;;;;;;;;;;2212318;59;1940;-70
2022/04/21 02:20:20;;;;;;;;;;;;;;;;;;2207613;59;1203;-70
2022/04/21 02:22:56;;;;;;;;;;;;;;;;;;2205945;58;1158;-70
2022/04/21 02:25:29;;;;;;;;;;;;;;;;;;2205247;66;1187;-70
2022/04/21 02:28:02;;;;;;;;;;;;;;;;;;2206242;66;1282;-70
2022/04/21 02:30:35;;;;;;;;;;;;;;;;;;2214412;58;1316;-70
2022/04/21 02:33:09;;;;;;;;;;;;;;;;;;2209636;66;1180;-70
2022/04/21 02:35:42;;;;;;;;;;;;;;;;;;2206734;58;2465;-70
2022/04/21 02:38:19;;;;;;;;;;;;;;;;;;2205971;58;1940;-70
2022/04/21 02:40:52;;;;;;;;;;;;;;;;;;2205066;58;1143;-70
2022/04/21 02:43:25;;;;;;;;;;;;;;;;;;2205977;66;1153;-70
2022/04/21 02:45:58;;;;;;;;;;;;;;;;;;2205291;59;2881;-70
2022/04/21 02:48:32;;;;;;;;;;;;;;;;;;2206954;58;2741;-70
2022/04/21 02:51:05;;;;;;;;;;;;;;;;;;2207188;58;2450;-70
2022/04/21 02:59:18;;;;;;;;;;;;;;;;;;2218062;58;2463;-70
2022/04/21 03:01:51;;;;;;;;;;;;;;;;;;2207115;58;2718;-70
2022/04/21 03:04:24;;;;;;;;;;;;;;;;;;2208791;59;1499;-70
2022/04/21 03:06:57;;;;;;;;;;;;;;;;;;2206758;58;2442;-70
2022/04/21 03:09:33;;;;;;;;;;;;;;;;;;2206422;58;2358;-70
2022/04/21 03:12:07;;;;;;;;;;;;;;;;;;2208786;58;2477;-70
2022/04/21 03:14:41;;;;;;;;;;;;;;;;;;2206990;58;2397;-70
2022/04/21 03:17:14;;;;;;;;;;;;;;;;;;2207677;58;2379;-70
2022/04/21 03:19:48;;;;;;;;;;;;;;;;;;2205383;59;2383;-70
2022/04/21 03:25:15;;;;;;;;;;;;;;;;;;2207130;59;1158;-71
2022/04/21 03:27:50;;;;;;;;;;;;;;;;;;2206988;58;2402;-70
2022/04/21 03:30:23;;;;;;;;;;;;;;;;;;2206767;58;2377;-70
2022/04/21 03:32:56;;;;;;;;;;;;;;;;;;2206954;58;2419;-70
2022/04/21 03:35:29;;;;;;;;;;;;;;;;;;2207046;58;2398;-70
2022/04/21 03:38:03;;;;;;;;;;;;;;;;;;2208860;59;2354;-70
2022/04/21 03:40:38;;;;;;;;;;;;;;;;;;2207661;58;2587;-70
2022/04/21 03:43:12;;;;;;;;;;;;;;;;;;2206473;59;2427;-70
2022/04/21 03:45:45;;;;;;;;;;;;;;;;;;2208919;58;2682;-70
2022/04/21 03:48:19;;;;;;;;;;;;;;;;;;2207294;58;2383;-70
2022/04/21 03:50:52;;;;;;;;;;;;;;;;;;2206754;59;2509;-70
2022/04/21 03:53:25;;;;;;;;;;;;;;;;;;2207677;58;2437;-70
2022/04/21 03:56:01;;;;;;;;;;;;;;;;;;2208268;58;2297;-70
2022/04/21 03:58:34;;;;;;;;;;;;;;;;;;2205680;59;1933;-70
2022/04/21 04:01:07;;;;;;;;;;;;;;;;;;2207338;66;1194;-70
2022/04/21 04:03:41;;;;;;;;;;;;;;;;;;2208514;66;1147;-70
2022/04/21 04:11:52;;;;;;;;;;;;;;;;;;2206672;58;2364;-70
2022/04/21 04:14:25;;;;;;;;;;;;;;;;;;2207567;59;1307;-70
2022/04/21 04:16:58;;;;;;;;;;;;;;;;;;2206396;58;3008;-70
2022/04/21 04:19:32;;;;;;;;;;;;;;;;;;2206697;58;2897;-70
2022/04/21 04:22:06;;;;;;;;;;;;;;;;;;2207179;59;2478;-70
2022/04/21 04:24:39;;;;;;;;;;;;;;;;;;2205558;59;2379;-70
2022/04/21 04:27:15;;;;;;;;;;;;;;;;;;2206630;59;1793;-70
2022/04/21 04:29:48;;;;;;;;;;;;;;;;;;2205999;59;2431;-70
2022/04/21 04:32:21;;;;;;;;;;;;;;;;;;2203116;58;2417;-70
2022/04/21 04:34:54;;;;;;;;;;;;;;;;;;2206974;67;1096;-70
2022/04/21 04:37:27;;;;;;;;;;;;;;;;;;2206904;59;1832;-70
2022/04/21 04:40:00;;;;;;;;;;;;;;;;;;2207279;58;2816;-70
2022/04/21 04:42:36;;;;;;;;;;;;;;;;;;2206729;59;2633;-70
2022/04/21 04:47:58;;;;;;;;;;;;;;;;;;2205749;59;2473;-70
2022/04/21 04:50:31;;;;;;;;;;;;;;;;;;2206687;66;1239;-70
2022/04/21 04:53:05;;;;;;;;;;;;;;;;;;2205180;67;1413;-69
2022/04/21 04:55:38;;;;;;;;;;;;;;;;;;2206705;59;2394;-69
2022/04/21 04:58:14;;;;;;;;;;;;;;;;;;2206922;59;2859;-70
2022/04/21 05:00:49;;;;;;;;;;;;;;;;;;2208412;58;2415;-70
2022/04/21 05:03:22;;;;;;;;;;;;;;;;;;2207852;59;2602;-69
2022/04/21 05:05:55;;;;;;;;;;;;;;;;;;2207306;59;1388;-70
2022/04/21 05:08:28;;;;;;;;;;;;;;;;;;2207355;67;1340;-69
2022/04/21 05:11:03;;;;;;;;;;;;;;;;;;2207622;67;1195;-70
2022/04/21 05:13:39;;;;;;;;;;;;;;;;;;2206258;59;2434;-69
2022/04/21 05:16:12;;;;;;;;;;;;;;;;;;2206602;58;2569;-70
2022/04/21 05:18:45;;;;;;;;;;;;;;;;;;2207239;58;2826;-70
2022/04/21 05:21:19;;;;;;;;;;;;;;;;;;2205178;59;2669;-70
2022/04/21 05:23:57;;;;;;;;;;;;;;;;;;2206425;59;1717;-69
2022/04/21 05:26:31;;;;;;;;;;;;;;;;;;2210606;66;3018;-70
2022/04/21 05:30:55;;;;;;;;;;;;;;;;;;2207163;58;2562;-70
2022/04/21 05:31:59;;;;;;;;;;;;;;;;;;2206371;59;2460;-70
2022/04/21 05:34:33;;;;;;;;;;;;;;;;;;2208056;59;1792;-70
2022/04/21 05:37:06;;;;;;;;;;;;;;;;;;2205396;59;1730;-69
2022/04/21 05:39:40;;;;;;;;;;;;;;;;;;2206144;58;2137;-70
2022/04/21 05:42:16;;;;;;;;;;;;;;;;;;2207285;59;1528;-70
2022/04/21 05:44:52;;;;;;;;;;;;;;;;;;2204877;66;1227;-70
2022/04/21 05:47:27;;;;;;;;;;;;;;;;;;2201206;58;2408;-70
2022/04/21 05:50:00;;;;;;;;;;;;;;;;;;2206696;59;1169;-70
2022/04/21 05:52:34;;;;;;;;;;;;;;;;;;2205694;59;1200;-70
2022/04/21 05:55:07;;;;;;;;;;;;;;;;;;2204465;66;1116;-70
2022/04/21 05:57:40;;;;;;;;;;;;;;;;;;2207642;58;2566;-70
2022/04/21 06:00:17;;;;;;;;;;;;;;;;;;2205590;59;2296;-70
2022/04/21 06:02:50;;;;;;;;;;;;;;;;;;2205813;59;2483;-70
2022/04/21 06:05:23;;;;;;;;;;;;;;;;;;2208909;59;1232;-70
2022/04/21 06:07:56;;;;;;;;;;;;;;;;;;2205663;59;2307;-70
2022/04/21 06:10:30;;;;;;;;;;;;;;;;;;2206127;59;2273;-70
2022/04/21 06:13:03;;;;;;;;;;;;;;;;;;2205069;59;1316;-70
2022/04/21 06:15:39;;;;;;;;;;;;;;;;;;2206474;58;1625;-70
2022/04/21 06:18:12;;;;;;;;;;;;;;;;;;2205631;59;2398;-70
2022/04/21 06:20:46;;;;;;;;;;;;;;;;;;2205288;58;2753;-70
2022/04/21 06:23:19;;;;;;;;;;;;;;;;;;2202783;59;1761;-70
2022/04/21 06:25:58;;;;;;;;;;;;;;;;;;2205678;59;1418;-70
2022/04/21 06:28:33;;;;;;;;;;;;;;;;;;2205095;59;1189;-70
2022/04/21 06:31:09;;;;;;;;;;;;;;;;;;2205147;59;1289;-70
2022/04/21 06:33:42;;;;;;;;;;;;;;;;;;2205848;59;1643;-70
2022/04/21 06:36:15;;;;;;;;;;;;;;;;;;2204376;66;1090;-70
2022/04/21 06:38:48;;;;;;;;;;;;;;;;;;2205517;58;1823;-70
2022/04/21 06:41:22;;;;;;;;;;;;;;;;;;2204896;59;1239;-70
2022/04/21 06:49:35;;;;;;;;;;;;;;;;;;2207268;66;1088;-70
2022/04/21 06:52:08;;;;;;;;;;;;;;;;;;2205114;66;1080;-70
2022/04/21 06:54:41;;;;;;;;;;;;;;;;;;2207303;66;1079;-71
2022/04/21 06:57:15;;;;;;;;;;;;;;;;;;2205822;66;1246;-71
2022/04/21 06:59:48;;;;;;;;;;;;;;;;;;2205312;59;1928;-70
2022/04/21 07:02:31;;;;;;;;;;;;;;;;;;2208086;59;1190;-70
2022/04/21 07:05:05;;;;;;;;;;;;;;;;;;2212247;59;1157;-70
2022/04/21 07:07:39;;;;;;;;;;;;;;;;;;2205968;67;1230;-70
2022/04/21 07:10:13;;;;;;;;;;;;;;;;;;2204126;66;1428;-70
2022/04/21 07:12:46;;;;;;;;;;;;;;;;;;2206843;59;2675;-71
2022/04/21 07:15:19;;;;;;;;;;;;;;;;;;2206764;59;1359;-70
2022/04/21 07:17:55;;;;;;;;;;;;;;;;;;2206924;59;2427;-70
2022/04/21 07:20:29;;;;;;;;;;;;;;;;;;2205171;59;2711;-70
2022/04/21 07:23:02;;;;;;;;;;;;;;;;;;2206766;59;1603;-69
2022/04/21 07:25:36;;;;;;;;;;;;;;;;;;2206895;59;2648;-70
2022/04/21 07:28:09;;;;;;;;;;;;;;;;;;2207291;59;1396;-70
2022/04/21 07:30:42;;;;;;;;;;;;;;;;;;2206262;59;1361;-70
2022/04/21 07:33:18;;;;;;;;;;;;;;;;;;2202617;59;1759;-70
2022/04/21 07:35:51;;;;;;;;;;;;;;;;;;2206650;67;1319;-70
2022/04/21 07:38:24;;;;;;;;;;;;;;;;;;2206776;59;1867;-70
2022/04/21 07:40:57;;;;;;;;;;;;;;;;;;2206473;59;1935;-70
2022/04/21 07:43:31;;;;;;;;;;;;;;;;;;2206479;59;2024;-70
2022/04/21 07:46:04;;;;;;;;;;;;;;;;;;2206368;67;1194;-70
2022/04/21 07:51:29;;;;;;;;;;;;;;;;;;2206449;58;2367;-70
2022/04/21 07:53:59;;;;;;;;;;;;;;;;;;2205702;59;2616;-70
2022/04/21 07:56:32;;;;;;;;;;;;;;;;;;2205438;59;2483;-71
2022/04/21 07:59:05;;;;;;;;;;;;;;;;;;2206101;59;1814;-70
2022/04/21 08:01:39;;;;;;;;;;;;;;;;;;2206751;67;1951;-71
2022/04/21 08:04:14;;;;;;;;;;;;;;;;;;2209571;59;1186;-70
2022/04/21 08:06:48;;;;;;;;;;;;;;;;;;2206247;67;1210;-71
2022/04/21 08:09:21;;;;;;;;;;;;;;;;;;2206587;67;1325;-70
2022/04/21 08:11:55;;;;;;;;;;;;;;;;;;2205315;67;1341;-68
2022/04/21 08:14:28;;;;;;;;;;;;;;;;;;2207501;59;2001;-68
2022/04/21 08:17:02;;;;;;;;;;;;;;;;;;2205187;67;1205;-68
2022/04/21 08:19:38;;;;;;;;;;;;;;;;;;2202338;59;2076;-68
2022/04/21 08:22:11;;;;;;;;;;;;;;;;;;2206886;59;1960;-68
2022/04/21 08:33:10;;;;;;;;;;;;;;;;;;2208393;59;2416;-68
2022/04/21 08:35:49;;;;;;;;;;;;;;;;;;2206057;59;2584;-68
2022/04/21 08:38:22;;;;;;;;;;;;;;;;;;2204995;59;1784;-68
2022/04/21 08:40:56;;;;;;;;;;;;;;;;;;2208159;59;1936;-67
2022/04/21 08:43:30;;;;;;;;;;;;;;;;;;2206695;59;1273;-68
2022/04/21 08:46:05;;;;;;;;;;;;;;;;;;2202486;58;2529;-68
2022/04/21 08:48:38;;;;;;;;;;;;;;;;;;2205084;59;1329;-68
2022/04/21 08:51:15;;;;;;;;;;;;;;;;;;2206197;59;1427;-68
2022/04/21 08:53:48;;;;;;;;;;;;;;;;;;2207205;66;1210;-68
2022/04/21 08:56:22;;;;;;;;;;;;;;;;;;2205900;58;2530;-68
2022/04/21 08:58:55;;;;;;;;;;;;;;;;;;2213847;59;1847;-68
2022/04/21 09:01:28;;;;;;;;;;;;;;;;;;2207016;59;1975;-68
2022/04/21 09:04:01;;;;;;;;;;;;;;;;;;2206847;58;1239;-68
2022/04/21 09:06:39;;;;;;;;;;;;;;;;;;2205739;58;2638;-68
2022/04/21 09:09:16;;;;;;;;;;;;;;;;;;2206845;58;1482;-69
2022/04/21 09:11:52;;;;;;;;;;;;;;;;;;2206201;67;1099;-69
2022/04/21 09:14:25;;;;;;;;;;;;;;;;;;2206716;58;1563;-69
2022/04/21 09:17:05;;;;;;;;;;;;;;;;;;2205765;67;1269;-69
2022/04/21 09:19:40;;;;;;;;;;;;;;;;;;2207021;59;2397;-69
2022/04/21 09:22:19;;;;;;;;;;;;;;;;;;2205591;59;2133;-69
2022/04/21 09:24:53;;;;;;;;;;;;;;;;;;2202498;58;2709;-69
2022/04/21 09:27:26;;;;;;;;;;;;;;;;;;2206615;58;2238;-68
2022/04/21 09:30:03;;;;;;;;;;;;;;;;;;2205722;60;1452;-69
2022/04/21 09:32:37;;;;;;;;;;;;;;;;;;2206736;58;2452;-68
2022/04/21 09:35:11;;;;;;;;;;;;;;;;;;2206131;59;2334;-68
2022/04/21 09:37:53;;;;;;;;;;;;;;;;;;2206546;59;1910;-67
2022/04/21 09:40:28;;;;;;;;;;;;;;;;;;2206490;66;1976;-69
2022/04/21 09:43:01;;;;;;;;;;;;;;;;;;2203899;66;1199;-68
2022/04/21 09:48:26;;;;;;;;;;;;;;;;;;2206552;59;2355;-68
2022/04/21 09:51:10;;;;;;;;;;;;;;;;;;2205807;59;1797;-69
2022/04/21 09:53:53;;;;;;;;;;;;;;;;;;2206464;59;1399;-68
2022/04/21 09:56:34;;;;;;;;;;;;;;;;;;2206909;59;2452;-69
2022/04/21 09:59:08;;;;;;;;;;;;;;;;;;2209987;59;2705;-69
2022/04/21 10:01:42;;;;;;;;;;;;;;;;;;2206704;58;1983;-69
2022/04/21 10:04:17;;;;;;;;;;;;;;;;;;2207821;66;1209;-68
2022/04/21 10:06:51;;;;;;;;;;;;;;;;;;2206231;66;1919;-69
2022/04/21 10:09:26;;;;;;;;;;;;;;;;;;2205743;59;1202;-68
2022/04/21 10:12:00;;;;;;;;;;;;;;;;;;2205767;59;1411;-69
2022/04/21 10:14:33;;;;;;;;;;;;;;;;;;2207258;66;1197;-69
2022/04/21 10:17:10;;;;;;;;;;;;;;;;;;2205105;66;1101;-69
2022/04/21 10:19:43;;;;;;;;;;;;;;;;;;2203125;58;1718;-69
2022/04/21 10:22:17;;;;;;;;;;;;;;;;;;2210124;58;1979;-69
2022/04/21 10:24:56;;;;;;;;;;;;;;;;;;2204754;59;1479;-69
2022/04/21 10:27:39;;;;;;;;;;;;;;;;;;2205019;59;1579;-69
2022/04/21 10:30:15;;;;;;;;;;;;;;;;;;2205429;59;1257;-69
2022/04/21 10:32:53;;;;;;;;;;;;;;;;;;2206325;67;1152;-69
2022/04/21 10:35:44;;;;;;;;;;;;;;;;;;2205653;67;1199;-69
2022/04/21 10:38:25;;;;;;;;;;;;;;;;;;2203985;59;2006;-69
2022/04/21 10:41:03;;;;;;;;;;;;;;;;;;2206681;67;1933;-69
2022/04/21 10:43:54;;;;;;;;;;;;;;;;;;2206551;66;1104;-69
2022/04/21 10:46:29;;;;;;;;;;;;;;;;;;2203360;67;1943;-69
2022/04/21 10:49:02;;;;;;;;;;;;;;;;;;2206758;59;1285;-69
2022/04/21 10:58:28;;;;;;;;;;;;;;;;;;2199416;59;2673;-69
2022/04/21 11:01:14;;;;;;;;;;;;;;;;;;2208843;66;1981;-69
2022/04/21 11:03:48;;;;;;;;;;;;;;;;;;2208001;66;1269;-69
2022/04/21 11:06:21;;;;;;;;;;;;;;;;;;2206400;67;1179;-69
2022/04/21 11:08:54;;;;;;;;;;;;;;;;;;2206602;67;1253;-69
2022/04/21 11:11:42;;;;;;;;;;;;;;;;;;2206381;67;1273;-70
2022/04/21 11:14:31;;;;;;;;;;;;;;;;;;2205530;59;1641;-69
2022/04/21 11:17:08;;;;;;;;;;;;;;;;;;2207054;66;3817;-69
2022/04/21 11:19:44;;;;;;;;;;;;;;;;;;2207033;59;2212;-69
2022/04/21 11:22:37;;;;;;;;;;;;;;;;;;2206451;59;1980;-69
2022/04/21 11:25:11;;;;;;;;;;;;;;;;;;2206370;58;1092;-69
2022/04/21 11:27:45;;;;;;;;;;;;;;;;;;2203127;66;1540;-69
2022/04/21 11:30:18;;;;;;;;;;;;;;;;;;2205178;67;1416;-69
2022/04/21 11:32:55;;;;;;;;;;;;;;;;;;2207461;67;1128;-68
2022/04/21 11:35:28;;;;;;;;;;;;;;;;;;2206408;59;1182;-69
2022/04/21 11:38:02;;;;;;;;;;;;;;;;;;2205520;59;1886;-69
2022/04/21 11:40:36;;;;;;;;;;;;;;;;;;2206246;66;1936;-69
2022/04/21 11:43:17;;;;;;;;;;;;;;;;;;2207294;67;1273;-69
2022/04/21 11:45:57;;;;;;;;;;;;;;;;;;2207469;59;1242;-69
2022/04/21 11:48:34;;;;;;;;;;;;;;;;;;2206639;59;1478;-70
2022/04/21 11:51:07;;;;;;;;;;;;;;;;;;2205534;59;1270;-69
2022/04/21 11:53:41;;;;;;;;;;;;;;;;;;2206603;67;1236;-68
2022/04/21 11:56:15;;;;;;;;;;;;;;;;;;2205180;59;1277;-69
2022/04/21 11:58:48;;;;;;;;;;;;;;;;;;2206880;58;2635;-69
2022/04/21 12:07:03;;;;;;;;;;;;;;;;;;2205943;67;1282;-68
2022/04/21 12:09:37;;;;;;;;;;;;;;;;;;2209913;59;1263;-69
2022/04/21 12:12:11;;;;;;;;;;;;;;;;;;2205887;58;2917;-69
2022/04/21 12:14:44;;;;;;;;;;;;;;;;;;2207614;64;1383;-69
2022/04/21 12:17:19;;;;;;;;;;;;;;;;;;2206063;59;1233;-69
2022/04/21 12:20:03;;;;;;;;;;;;;;;;;;2208168;58;1458;-69
2022/04/21 12:22:36;;;;;;;;;;;;;;;;;;2206739;59;1939;-69
2022/04/21 12:25:13;;;;;;;;;;;;;;;;;;2205813;59;1302;-68
2022/04/21 12:27:46;;;;;;;;;;;;;;;;;;2206294;59;1635;-68
2022/04/21 12:30:22;;;;;;;;;;;;;;;;;;2206822;59;1427;-69
2022/04/21 12:32:55;;;;;;;;;;;;;;;;;;2202282;59;1742;-69
2022/04/21 12:35:49;;;;;;;;;;;;;;;;;;2205170;59;1774;-69
2022/04/21 12:41:11;;;;;;;;;;;;;;;;;;2206544;59;1932;-69
2022/04/21 12:43:44;;;;;;;;;;;;;;;;;;2205448;58;2405;-69
2022/04/21 12:46:17;;;;;;;;;;;;;;;;;;2205897;59;1538;-68
2022/04/21 12:48:50;;;;;;;;;;;;;;;;;;2203665;59;1627;-69
2022/04/21 12:51:26;;;;;;;;;;;;;;;;;;2205716;59;1308;-69
2022/04/21 12:54:00;;;;;;;;;;;;;;;;;;2204999;59;1215;-68
2022/04/21 12:56:34;;;;;;;;;;;;;;;;;;2207102;59;1629;-69
2022/04/21 12:59:07;;;;;;;;;;;;;;;;;;2204671;59;1874;-69
2022/04/21 13:01:40;;;;;;;;;;;;;;;;;;2206605;67;1932;-69
2022/04/21 13:04:13;;;;;;;;;;;;;;;;;;2208753;58;1707;-69
2022/04/21 13:06:49;;;;;;;;;;;;;;;;;;2206447;59;1213;-69
2022/04/21 13:09:22;;;;;;;;;;;;;;;;;;2206767;66;1270;-70
2022/04/21 13:11:55;;;;;;;;;;;;;;;;;;2206278;67;1212;-69
2022/04/21 13:14:28;;;;;;;;;;;;;;;;;;2206657;59;1801;-69
2022/04/21 13:17:02;;;;;;;;;;;;;;;;;;2205981;59;1336;-69
2022/04/21 13:19:35;;;;;;;;;;;;;;;;;;2203825;59;2025;-69
2022/04/21 13:22:08;;;;;;;;;;;;;;;;;;2205643;59;1939;-69
2022/04/21 13:24:41;;;;;;;;;;;;;;;;;;2206450;58;2124;-70
2022/04/21 13:27:16;;;;;;;;;;;;;;;;;;2217361;58;2634;-69
2022/04/21 13:29:49;;;;;;;;;;;;;;;;;;2210641;59;2296;-70
2022/04/21 13:35:11;;;;;;;;;;;;;;;;;;2206784;67;1044;-70
2022/04/21 13:37:47;;;;;;;;;;;;;;;;;;2205572;58;1692;-69
2022/04/21 13:40:20;;;;;;;;;;;;;;;;;;2206406;66;1042;-70
2022/04/21 13:42:53;;;;;;;;;;;;;;;;;;2206644;59;1986;-68
2022/04/21 13:45:26;;;;;;;;;;;;;;;;;;2203616;67;1100;-69
2022/04/21 13:48:01;;;;;;;;;;;;;;;;;;2206561;59;1250;-68
2022/04/21 13:50:34;;;;;;;;;;;;;;;;;;2205277;59;1326;-67
2022/04/21 13:53:10;;;;;;;;;;;;;;;;;;2205707;67;1194;-68
2022/04/21 13:55:43;;;;;;;;;;;;;;;;;;2206478;66;1081;-68
2022/04/21 13:58:16;;;;;;;;;;;;;;;;;;2205207;58;1764;-68
2022/04/21 14:00:49;;;;;;;;;;;;;;;;;;2206329;59;1080;-68
2022/04/21 14:03:23;;;;;;;;;;;;;;;;;;2208370;66;1941;-67
2022/04/21 14:05:56;;;;;;;;;;;;;;;;;;2206696;59;1387;-69
2022/04/21 14:08:32;;;;;;;;;;;;;;;;;;2206242;59;1400;-68
2022/04/21 14:11:05;;;;;;;;;;;;;;;;;;2206470;66;1049;-68
2022/04/21 14:13:38;;;;;;;;;;;;;;;;;;2207355;59;1321;-68
2022/04/21 14:16:12;;;;;;;;;;;;;;;;;;2206113;59;1693;-67
2022/04/21 14:18:46;;;;;;;;;;;;;;;;;;2206557;59;1727;-68
2022/04/21 14:21:20;;;;;;;;;;;;;;;;;;2206214;59;1925;-68
2022/04/21 14:23:56;;;;;;;;;;;;;;;;;;2209196;58;1247;-68
2022/04/21 14:26:30;;;;;;;;;;;;;;;;;;2211174;58;1690;-68
2022/04/21 14:29:03;;;;;;;;;;;;;;;;;;2206314;59;2233;-67
2022/04/21 14:31:36;;;;;;;;;;;;;;;;;;2206797;58;2504;-68
2022/04/21 14:34:10;;;;;;;;;;;;;;;;;;2207200;59;1272;-68
2022/04/21 14:36:43;;;;;;;;;;;;;;;;;;2207747;67;1119;-69
2022/04/21 14:44:57;;;;;;;;;;;;;;;;;;2205859;59;1156;-68
2022/04/21 14:47:30;;;;;;;;;;;;;;;;;;2209579;59;1316;-68
2022/04/21 14:50:05;;;;;;;;;;;;;;;;;;2206642;66;1155;-67
2022/04/21 14:52:39;;;;;;;;;;;;;;;;;;2207973;66;1887;-68
2022/04/21 14:55:14;;;;;;;;;;;;;;;;;;2205767;58;1203;-68
2022/04/21 14:57:48;;;;;;;;;;;;;;;;;;2208185;58;1837;-68
2022/04/21 15:00:21;;;;;;;;;;;;;;;;;;2207315;67;1187;-68
2022/04/21 15:02:54;;;;;;;;;;;;;;;;;;2206258;66;1963;-68
2022/04/21 15:05:27;;;;;;;;;;;;;;;;;;2207043;59;1347;-68
2022/04/21 15:08:05;;;;;;;;;;;;;;;;;;2206481;59;1637;-68
2022/04/21 15:10:44;;;;;;;;;;;;;;;;;;2206717;67;1100;-68
2022/04/21 15:13:18;;;;;;;;;;;;;;;;;;2206961;59;1439;-69
2022/04/21 15:15:52;;;;;;;;;;;;;;;;;;2206631;67;1120;-68
2022/04/21 15:18:25;;;;;;;;;;;;;;;;;;2205419;59;1906;-69
2022/04/21 15:21:01;;;;;;;;;;;;;;;;;;2207119;59;1143;-68
2022/04/21 15:23:34;;;;;;;;;;;;;;;;;;2205453;66;1980;-69
2022/04/21 15:26:11;;;;;;;;;;;;;;;;;;2205976;59;1937;-68
2022/04/21 15:28:45;;;;;;;;;;;;;;;;;;2207127;59;2583;-68
2022/04/21 15:31:20;;;;;;;;;;;;;;;;;;2205232;59;2580;-68
2022/04/21 15:33:53;;;;;;;;;;;;;;;;;;2206194;58;1126;-68
2022/04/21 15:36:26;;;;;;;;;;;;;;;;;;2206830;59;1178;-67
2022/04/21 15:38:59;;;;;;;;;;;;;;;;;;2202664;58;1473;-69
2022/04/21 15:41:35;;;;;;;;;;;;;;;;;;2205845;67;1037;-68
2022/04/21 15:44:09;;;;;;;;;;;;;;;;;;2204808;59;1952;-68
2022/04/21 15:46:42;;;;;;;;;;;;;;;;;;2205899;59;1879;-68
2022/04/21 15:49:15;;;;;;;;;;;;;;;;;;2206868;59;1214;-68
2022/04/21 15:51:48;;;;;;;;;;;;;;;;;;2204761;59;1189;-68
2022/04/21 16:00:02;;;;;;;;;;;;;;;;;;2206693;59;1100;-68
2022/04/21 16:02:35;;;;;;;;;;;;;;;;;;2206680;59;1984;-69
2022/04/21 16:05:08;;;;;;;;;;;;;;;;;;2207572;59;1784;-68
2022/04/21 16:07:42;;;;;;;;;;;;;;;;;;2207568;59;1741;-68
2022/04/21 16:10:15;;;;;;;;;;;;;;;;;;2207319;59;1020;-68
2022/04/21 16:12:51;;;;;;;;;;;;;;;;;;2207845;59;1265;-68
2022/04/21 16:15:24;;;;;;;;;;;;;;;;;;2206337;59;1668;-68
2022/04/21 16:17:57;;;;;;;;;;;;;;;;;;2206951;59;1759;-67
2022/04/21 16:20:30;;;;;;;;;;;;;;;;;;2206754;67;1223;-68
2022/04/21 16:23:03;;;;;;;;;;;;;;;;;;2206766;59;1937;-68
2022/04/21 16:25:36;;;;;;;;;;;;;;;;;;2203030;59;1763;-70
2022/04/21 16:28:12;;;;;;;;;;;;;;;;;;2206179;59;1329;-71
2022/04/21 16:30:47;;;;;;;;;;;;;;;;;;2200598;59;2527;-70
2022/04/21 16:33:20;;;;;;;;;;;;;;;;;;2212120;59;2853;-70
2022/04/21 16:35:53;;;;;;;;;;;;;;;;;;2206636;66;1302;-70
2022/04/21 16:38:26;;;;;;;;;;;;;;;;;;2205924;58;1911;-71
2022/04/21 16:40:59;;;;;;;;;;;;;;;;;;2206552;59;1357;-70
2022/04/21 16:43:35;;;;;;;;;;;;;;;;;;2205994;59;1944;-69
2022/04/21 16:46:08;;;;;;;;;;;;;;;;;;2206008;59;1969;-71
2022/04/21 16:48:41;;;;;;;;;;;;;;;;;;2207034;58;1272;-70
2022/04/21 16:51:15;;;;;;;;;;;;;;;;;;2207366;66;1230;-71
2022/04/21 16:53:49;;;;;;;;;;;;;;;;;;2206490;66;1192;-70
2022/04/21 16:56:22;;;;;;;;;;;;;;;;;;2207469;59;1271;-70
2022/04/21 16:58:58;;;;;;;;;;;;;;;;;;2205477;59;2057;-71
2022/04/21 17:04:19;;;;;;;;;;;;;;;;;;2207855;66;1930;-70
2022/04/21 17:06:53;;;;;;;;;;;;;;;;;;2212428;58;1381;-70
2022/04/21 17:09:26;;;;;;;;;;;;;;;;;;2206541;59;1704;-70
2022/04/21 17:11:59;;;;;;;;;;;;;;;;;;2205299;66;1192;-71
2022/04/21 17:14:35;;;;;;;;;;;;;;;;;;2205478;59;1568;-70
2022/04/21 17:17:08;;;;;;;;;;;;;;;;;;2206044;59;1709;-70
2022/04/21 17:19:41;;;;;;;;;;;;;;;;;;2206534;59;2083;-70
2022/04/21 17:22:15;;;;;;;;;;;;;;;;;;2207267;66;1971;-70
2022/04/21 17:24:48;;;;;;;;;;;;;;;;;;2206697;66;1194;-70
2022/04/21 17:27:21;;;;;;;;;;;;;;;;;;2205533;59;1989;-70
2022/04/21 17:29:57;;;;;;;;;;;;;;;;;;2205326;59;1218;-70
2022/04/21 17:32:30;;;;;;;;;;;;;;;;;;2204836;59;2590;-70
2022/04/21 17:35:03;;;;;;;;;;;;;;;;;;2204528;66;1116;-70
2022/04/21 17:37:36;;;;;;;;;;;;;;;;;;2205458;58;1666;-71
2022/04/21 17:40:09;;;;;;;;;;;;;;;;;;2206393;58;1876;-70
2022/04/21 17:42:43;;;;;;;;;;;;;;;;;;2206351;66;1983;-70
2022/04/21 17:45:18;;;;;;;;;;;;;;;;;;2204842;59;1988;-70
2022/04/21 17:47:52;;;;;;;;;;;;;;;;;;2206058;59;1250;-70
2022/04/21 17:50:25;;;;;;;;;;;;;;;;;;2206515;59;1062;-70
2022/04/21 17:52:58;;;;;;;;;;;;;;;;;;2202464;67;1278;-70
2022/04/21 17:55:31;;;;;;;;;;;;;;;;;;2205287;59;1062;-70
2022/04/21 17:58:04;;;;;;;;;;;;;;;;;;2205565;59;1788;-70
2022/04/21 18:00:41;;;;;;;;;;;;;;;;;;2205949;66;1264;-70
2022/04/21 18:03:15;;;;;;;;;;;;;;;;;;2207463;58;1938;-70
2022/04/21 18:05:49;;;;;;;;;;;;;;;;;;2205909;58;1654;-70
2022/04/21 18:08:22;;;;;;;;;;;;;;;;;;2205974;59;1147;-70
2022/04/21 18:10:56;;;;;;;;;;;;;;;;;;2203459;59;1531;-70
2022/04/21 18:13:29;;;;;;;;;;;;;;;;;;2205531;59;1230;-71
2022/04/21 18:16:05;;;;;;;;;;;;;;;;;;2205049;59;1703;-70
2022/04/21 18:18:38;;;;;;;;;;;;;;;;;;2206216;59;1781;-70
2022/04/21 18:21:12;;;;;;;;;;;;;;;;;;2204323;66;1374;-71
2022/04/21 18:23:45;;;;;;;;;;;;;;;;;;2202972;58;1993;-69
2022/04/21 18:26:18;;;;;;;;;;;;;;;;;;2208432;66;1241;-70
2022/04/21 18:28:51;;;;;;;;;;;;;;;;;;2203593;58;1697;-70
2022/04/21 18:31:27;;;;;;;;;;;;;;;;;;2204274;66;1187;-69
2022/04/21 18:34:01;;;;;;;;;;;;;;;;;;2204757;59;3016;-69
2022/04/21 18:36:35;;;;;;;;;;;;;;;;;;2207300;66;1123;-69
2022/04/21 18:39:08;;;;;;;;;;;;;;;;;;2205918;59;2235;-69
2022/04/21 18:41:41;;;;;;;;;;;;;;;;;;2206148;67;1128;-69
2022/04/21 18:44:15;;;;;;;;;;;;;;;;;;2204516;59;1924;-69
2022/04/21 18:46:51;;;;;;;;;;;;;;;;;;2204470;67;1188;-70
2022/04/21 18:49:25;;;;;;;;;;;;;;;;;;2206657;58;1569;-69
2022/04/21 18:51:58;;;;;;;;;;;;;;;;;;2204237;58;1700;-69
2022/04/21 18:54:32;;;;;;;;;;;;;;;;;;2205264;66;1286;-69
2022/04/21 18:57:05;;;;;;;;;;;;;;;;;;2203791;59;2436;-69
2022/04/21 18:59:38;;;;;;;;;;;;;;;;;;2195715;54;3585;-71
2022/04/21 19:02:15;;;;;;;;;;;;;;;;;;2192865;59;1801;-70
2022/04/21 19:04:48;;;;;;;;;;;;;;;;;;2191199;59;1985;-71